Time;durP1;ratioP1;P1;durP2;ratioP2;P2;SDS_P1;SDS_P2;PMS_P1;PMS_P2;Temp;Humidity;BMP_temperature;BMP_pressure;BME280_temperature;BME280_humidity;BME280_pressure;Samples;Min_cycle;Max_cycle;Signal;HPM_P1;HPM_P2
2022/08/08 00:02:26;;;;;;;13.60;6.57;;;;;;;;;;5033956;28;20032;-65
2022/08/08 00:04:57;;;;;;;14.85;7.72;;;;;;;;;;5034039;28;20532;-65
2022/08/08 00:07:27;;;;;;;11.00;6.50;;;;;;;;;;5034326;28;20025;-65
2022/08/08 00:10:10;;;;;;;10.53;5.90;;;;;;;;;;5033729;28;20044;-65
2022/08/08 00:12:43;;;;;;;12.87;6.30;;;;;;;;;;5033577;28;20021;-65
2022/08/08 00:15:11;;;;;;;9.30;6.37;;;;;;;;;;5033655;28;20029;-65
2022/08/08 00:17:40;;;;;;;11.73;6.50;;;;;;;;;;5033706;28;20108;-65
2022/08/08 00:20:06;;;;;;;10.63;6.43;;;;;;;;;;5033578;28;20075;-65
2022/08/08 00:22:38;;;;;;;12.23;6.67;;;;;;;;;;5051674;28;20024;-64
2022/08/08 00:25:03;;;;;;;;;;;;;;;;;;5034801;28;20013;-65
2022/08/08 00:27:28;;;;;;;10.57;6.68;;;;;;;;;;5033674;28;19912;-65
2022/08/08 00:29:54;;;;;;;12.07;6.50;;;;;;;;;;5033470;28;20026;-65
2022/08/08 00:32:24;;;;;;;10.80;5.37;;;;;;;;;;5033755;28;20151;-65
2022/08/08 00:35:11;;;;;;;10.87;6.33;;;;;;;;;;5033479;28;20389;-65
2022/08/08 00:37:51;;;;;;;9.53;6.20;;;;;;;;;;5032747;28;20063;-66
2022/08/08 00:40:28;;;;;;;11.83;6.43;;;;;;;;;;5033062;28;20080;-65
2022/08/08 00:42:59;;;;;;;12.30;6.57;;;;;;;;;;5033252;28;20032;-65
2022/08/08 00:45:36;;;;;;;11.73;6.17;;;;;;;;;;5033300;28;20029;-65
2022/08/08 00:48:14;;;;;;;12.33;6.47;;;;;;;;;;5033311;28;20511;-64
2022/08/08 00:50:48;;;;;;;12.93;7.30;;;;;;;;;;5032699;28;20017;-66
2022/08/08 00:53:19;;;;;;;12.47;7.67;;;;;;;;;;5033230;28;20039;-64
2022/08/08 00:55:47;;;;;;;13.25;7.40;;;;;;;;;;5032636;28;20099;-65
2022/08/08 00:58:31;;;;;;;10.30;6.80;;;;;;;;;;5033109;28;20473;-65
2022/08/08 01:01:08;;;;;;;12.10;6.90;;;;;;;;;;5032812;28;20025;-65
2022/08/08 01:03:48;;;;;;;15.80;7.73;;;;;;;;;;5032572;28;20444;-65
2022/08/08 01:06:23;;;;;;;13.77;7.73;;;;;;;;;;5033358;28;20478;-65
2022/08/08 01:09:03;;;;;;;13.23;8.40;;;;;;;;;;5032425;28;20014;-65
2022/08/08 01:11:46;;;;;;;18.13;9.40;;;;;;;;;;5032737;28;20093;-65
2022/08/08 01:14:27;;;;;;;15.83;9.23;;;;;;;;;;5032676;28;20118;-65
2022/08/08 01:16:52;;;;;;;16.33;9.30;;;;;;;;;;5032981;28;20367;-65
2022/08/08 01:19:36;;;;;;;16.87;9.63;;;;;;;;;;5032188;28;20040;-65
2022/08/08 01:22:04;;;;;;;17.00;9.57;;;;;;;;;;5032825;28;20604;-65
2022/08/08 01:24:29;;;;;;;15.63;10.13;;;;;;;;;;5032371;28;20104;-65
2022/08/08 01:27:05;;;;;;;17.30;10.03;;;;;;;;;;5032392;28;20049;-65
2022/08/08 01:29:49;;;;;;;18.90;9.83;;;;;;;;;;5032119;28;20033;-65
2022/08/08 01:32:33;;;;;;;17.90;9.60;;;;;;;;;;5032309;28;20037;-65
2022/08/08 01:35:07;;;;;;;18.13;9.33;;;;;;;;;;5031945;28;20029;-65
2022/08/08 01:37:35;;;;;;;15.23;8.70;;;;;;;;;;5031745;28;20497;-65
2022/08/08 01:40:12;;;;;;;14.13;8.80;;;;;;;;;;5031572;28;20035;-65
2022/08/08 01:42:37;;;;;;;13.20;7.93;;;;;;;;;;5034754;28;20040;-65
2022/08/08 01:45:05;;;;;;;13.40;8.27;;;;;;;;;;5031916;28;20021;-65
2022/08/08 01:47:31;;;;;;;13.97;8.00;;;;;;;;;;5032020;28;20021;-65
2022/08/08 01:50:02;;;;;;;14.57;8.13;;;;;;;;;;5031294;28;20025;-65
2022/08/08 01:52:46;;;;;;;11.43;8.50;;;;;;;;;;5031170;28;20086;-65
2022/08/08 01:55:14;;;;;;;13.90;8.37;;;;;;;;;;5031057;28;20033;-65
2022/08/08 01:57:51;;;;;;;12.67;7.90;;;;;;;;;;5031773;28;20517;-65
2022/08/08 02:00:16;;;;;;;14.00;8.43;;;;;;;;;;5031048;28;20108;-65
2022/08/08 02:02:47;;;;;;;14.70;8.73;;;;;;;;;;5031732;28;20100;-65
2022/08/08 02:05:13;;;;;;;17.58;9.35;;;;;;;;;;5029481;28;20025;-65
2022/08/08 02:07:47;;;;;;;14.57;9.10;;;;;;;;;;5030787;28;20048;-65
2022/08/08 02:10:31;;;;;;;16.33;9.90;;;;;;;;;;5029037;28;20021;-64
2022/08/08 02:13:00;;;;;;;16.10;10.07;;;;;;;;;;5031734;28;20025;-65
2022/08/08 02:15:31;;;;;;;20.57;10.57;;;;;;;;;;5029858;28;20033;-65
2022/08/08 02:18:08;;;;;;;12.82;8.68;;;;;;;;;;5031531;28;20029;-65
2022/08/08 02:20:33;;;;;;;14.30;9.07;;;;;;;;;;5028220;28;20038;-65
2022/08/08 02:23:04;;;;;;;17.03;10.07;;;;;;;;;;5030924;28;20040;-65
2022/08/08 02:25:36;;;;;;;19.42;11.20;;;;;;;;;;5030387;28;20474;-65
2022/08/08 02:28:02;;;;;;;19.60;10.80;;;;;;;;;;5030425;28;20037;-65
2022/08/08 02:30:47;;;;;;;22.70;11.33;;;;;;;;;;5030624;28;20032;-65
2022/08/08 02:33:13;;;;;;;20.30;11.57;;;;;;;;;;5029916;28;20041;-65
2022/08/08 02:35:55;;;;;;;19.53;11.17;;;;;;;;;;5029956;28;20100;-65
2022/08/08 02:38:20;;;;;;;;;;;;;;;;;;5030571;28;20022;-65
2022/08/08 02:40:45;;;;;;;19.20;12.13;;;;;;;;;;5030571;28;19909;-65
2022/08/08 02:43:30;;;;;;;21.83;12.30;;;;;;;;;;5031300;28;20101;-65
2022/08/08 02:46:17;;;;;;;21.57;12.30;;;;;;;;;;5030733;28;20025;-65
2022/08/08 02:49:18;;;;;;;21.67;11.73;;;;;;;;;;5030899;28;20093;-65
2022/08/08 02:52:02;;;;;;;22.73;13.40;;;;;;;;;;5016051;28;20062;-65
2022/08/08 02:54:46;;;;;;;25.87;13.17;;;;;;;;;;5017568;28;20029;-65
2022/08/08 02:57:49;;;;;;;24.90;13.30;;;;;;;;;;5033046;28;20108;-65
2022/08/08 03:00:21;;;;;;;26.33;14.43;;;;;;;;;;5042211;28;20033;-65
2022/08/08 03:02:55;;;;;;;24.70;14.50;;;;;;;;;;5028261;28;20167;-65
2022/08/08 03:05:39;;;;;;;14.70;10.00;;;;;;;;;;5045818;28;20086;-65
2022/08/08 03:08:04;;;;;;;14.77;10.00;;;;;;;;;;5048861;28;20467;-65
2022/08/08 03:10:48;;;;;;;17.97;10.83;;;;;;;;;;5047303;28;20025;-65
2022/08/08 03:13:32;;;;;;;18.43;11.20;;;;;;;;;;5049507;28;20121;-65
2022/08/08 03:16:06;;;;;;;19.87;11.87;;;;;;;;;;5036954;28;20028;-65
2022/08/08 03:18:50;;;;;;;21.27;13.53;;;;;;;;;;5048552;28;20478;-65
2022/08/08 03:21:15;;;;;;;25.10;13.63;;;;;;;;;;5051420;28;20370;-65
2022/08/08 03:23:40;;;;;;;26.20;14.97;;;;;;;;;;5051232;28;20047;-65
2022/08/08 03:26:06;;;;;;;27.43;16.27;;;;;;;;;;5051481;28;20037;-65
2022/08/08 03:28:42;;;;;;;27.43;15.80;;;;;;;;;;5051456;28;20017;-65
2022/08/08 03:33:51;;;;;;;31.10;17.20;;;;;;;;;;5034183;28;20106;-65
2022/08/08 03:36:17;;;;;;;27.70;15.27;;;;;;;;;;5033196;28;20025;-64
2022/08/08 03:38:46;;;;;;;25.83;14.93;;;;;;;;;;5034142;28;20143;-65
2022/08/08 03:41:11;;;;;;;28.57;16.07;;;;;;;;;;5035381;28;20032;-65
2022/08/08 03:43:36;;;;;;;28.47;16.53;;;;;;;;;;5033692;28;20390;-65
2022/08/08 03:46:05;;;;;;;28.50;15.97;;;;;;;;;;5035778;28;20811;-65
2022/08/08 03:48:30;;;;;;;24.23;15.63;;;;;;;;;;5034350;28;20021;-65
2022/08/08 03:50:55;;;;;;;29.00;15.23;;;;;;;;;;5034167;28;20025;-65
2022/08/08 03:53:20;;;;;;;27.30;15.30;;;;;;;;;;5033476;28;20034;-65
2022/08/08 03:55:48;;;;;;;29.67;17.27;;;;;;;;;;5032473;28;20032;-65
2022/08/08 03:58:21;;;;;;;19.50;11.17;;;;;;;;;;5031325;28;20037;-65
2022/08/08 04:00:53;;;;;;;15.70;10.20;;;;;;;;;;5034187;28;20056;-65
2022/08/08 04:03:19;;;;;;;17.17;11.43;;;;;;;;;;5033388;28;20064;-65
2022/08/08 04:05:45;;;;;;;22.23;12.30;;;;;;;;;;5032439;28;20501;-65
2022/08/08 04:08:15;;;;;;;24.90;14.83;;;;;;;;;;5032975;28;20041;-65
2022/08/08 04:10:44;;;;;;;26.17;15.00;;;;;;;;;;5033103;28;20021;-64
2022/08/08 04:13:09;;;;;;;26.63;15.00;;;;;;;;;;5034253;28;20021;-64
2022/08/08 04:15:35;;;;;;;18.47;12.03;;;;;;;;;;5032354;28;20496;-64
2022/08/08 04:18:00;;;;;;;20.67;12.77;;;;;;;;;;5033177;28;20029;-65
2022/08/08 04:20:25;;;;;;;23.50;14.33;;;;;;;;;;5031851;28;20444;-65
2022/08/08 04:22:50;;;;;;;23.43;13.97;;;;;;;;;;5032218;28;20482;-65
2022/08/08 04:25:16;;;;;;;19.07;12.50;;;;;;;;;;5034210;28;20109;-65
2022/08/08 04:27:41;;;;;;;26.30;14.07;;;;;;;;;;5032963;28;20116;-65
2022/08/08 04:30:06;;;;;;;22.00;13.63;;;;;;;;;;5030753;28;20017;-65
2022/08/08 04:32:32;;;;;;;25.00;15.17;;;;;;;;;;5031352;28;20474;-65
2022/08/08 04:34:57;;;;;;;24.87;15.33;;;;;;;;;;5029004;28;20075;-65
2022/08/08 04:37:22;;;;;;;24.73;15.47;;;;;;;;;;5032266;28;20083;-65
2022/08/08 04:39:48;;;;;;;16.07;9.80;;;;;;;;;;5031843;28;20112;-65
2022/08/08 04:42:13;;;;;;;13.10;8.87;;;;;;;;;;5033332;28;20044;-65
2022/08/08 04:44:38;;;;;;;10.93;8.03;;;;;;;;;;5031477;28;20087;-65
2022/08/08 04:47:04;;;;;;;15.97;9.60;;;;;;;;;;5033519;28;20021;-64
2022/08/08 04:49:29;;;;;;;17.67;8.93;;;;;;;;;;5032918;28;20128;-65
2022/08/08 04:51:54;;;;;;;17.57;9.77;;;;;;;;;;5032645;28;20036;-65
2022/08/08 04:54:19;;;;;;;18.17;9.00;;;;;;;;;;5035738;28;20059;-65
2022/08/08 04:56:45;;;;;;;13.10;8.30;;;;;;;;;;5039506;28;20321;-65
2022/08/08 04:59:10;;;;;;;13.03;8.67;;;;;;;;;;5032558;28;20013;-65
2022/08/08 05:01:35;;;;;;;13.53;8.20;;;;;;;;;;5032736;28;20037;-65
2022/08/08 05:04:01;;;;;;;15.30;8.13;;;;;;;;;;5032727;28;20041;-65
2022/08/08 05:06:26;;;;;;;14.50;8.35;;;;;;;;;;5032997;28;20108;-65
2022/08/08 05:08:51;;;;;;;15.77;7.63;;;;;;;;;;5032856;28;20041;-65
2022/08/08 05:11:17;;;;;;;14.77;8.07;;;;;;;;;;5033101;28;20025;-65
2022/08/08 05:13:42;;;;;;;15.10;6.82;;;;;;;;;;5032432;28;20053;-65
2022/08/08 05:16:09;;;;;;;13.85;7.38;;;;;;;;;;5032808;28;20043;-65
2022/08/08 05:18:35;;;;;;;13.85;6.85;;;;;;;;;;5032265;28;20028;-66
2022/08/08 05:21:01;;;;;;;14.90;7.43;;;;;;;;;;5032576;28;20021;-65
2022/08/08 05:23:26;;;;;;;14.73;6.95;;;;;;;;;;5032829;28;20026;-65
2022/08/08 05:25:52;;;;;;;16.33;6.78;;;;;;;;;;5032230;28;20575;-65
2022/08/08 05:28:17;;;;;;;11.00;6.93;;;;;;;;;;5032719;28;20076;-65
2022/08/08 05:30:42;;;;;;;13.18;5.80;;;;;;;;;;5032422;28;20049;-66
2022/08/08 05:33:08;;;;;;;12.40;6.13;;;;;;;;;;5032565;28;20147;-66
2022/08/08 05:35:34;;;;;;;13.25;6.15;;;;;;;;;;5031193;28;20461;-66
2022/08/08 05:38:01;;;;;;;13.25;5.18;;;;;;;;;;5036313;28;20044;-66
2022/08/08 05:40:27;;;;;;;10.77;5.03;;;;;;;;;;5032793;28;20481;-66
2022/08/08 05:42:53;;;;;;;16.35;5.13;;;;;;;;;;5033422;28;20112;-65
2022/08/08 05:45:19;;;;;;;8.90;4.78;;;;;;;;;;5034702;28;20056;-65
2022/08/08 05:47:44;;;;;;;13.07;4.90;;;;;;;;;;5034742;28;20071;-66
2022/08/08 05:50:10;;;;;;;8.82;4.53;;;;;;;;;;5031780;28;20465;-66
2022/08/08 05:52:36;;;;;;;8.35;4.65;;;;;;;;;;5032064;28;20041;-65
2022/08/08 05:55:02;;;;;;;10.52;4.45;;;;;;;;;;5031976;28;20029;-66
2022/08/08 05:57:28;;;;;;;7.57;4.25;;;;;;;;;;5032301;28;20025;-66
2022/08/08 05:59:55;;;;;;;13.10;4.65;;;;;;;;;;5031913;28;20075;-66
2022/08/08 06:05:08;;;;;;;7.75;4.57;;;;;;;;;;5031670;28;20052;-66
2022/08/08 06:07:34;;;;;;;9.25;4.00;;;;;;;;;;5032044;28;20052;-66
2022/08/08 06:10:01;;;;;;;9.68;4.15;;;;;;;;;;5031405;28;20119;-66
2022/08/08 06:12:27;;;;;;;7.53;4.10;;;;;;;;;;5031620;28;20021;-66
2022/08/08 06:14:52;;;;;;;7.95;4.05;;;;;;;;;;5031235;28;20030;-66
2022/08/08 06:17:19;;;;;;;10.00;3.95;;;;;;;;;;5031725;28;20033;-66
2022/08/08 06:19:45;;;;;;;6.88;3.72;;;;;;;;;;5031089;28;20033;-66
2022/08/08 06:22:10;;;;;;;7.35;4.03;;;;;;;;;;5029099;28;20032;-66
2022/08/08 06:24:35;;;;;;;7.38;3.60;;;;;;;;;;5031443;28;20028;-64
2022/08/08 06:27:02;;;;;;;5.70;3.55;;;;;;;;;;5031430;28;20013;-66
2022/08/08 06:29:33;;;;;;;7.50;3.92;;;;;;;;;;5031469;28;20432;-64
2022/08/08 06:32:00;;;;;;;6.23;3.70;;;;;;;;;;5031590;28;20025;-64
2022/08/08 06:34:28;;;;;;;7.55;3.42;;;;;;;;;;5030450;28;20053;-63
2022/08/08 06:36:54;;;;;;;5.55;3.60;;;;;;;;;;5031518;28;20478;-64
2022/08/08 06:39:20;;;;;;;7.07;3.50;;;;;;;;;;5030935;28;20021;-64
2022/08/08 06:41:45;;;;;;;7.53;3.53;;;;;;;;;;5031082;28;20339;-64
2022/08/08 06:44:10;;;;;;;8.02;3.28;;;;;;;;;;5030874;28;20048;-64
2022/08/08 06:46:36;;;;;;;7.65;3.50;;;;;;;;;;5031472;28;20392;-64
2022/08/08 06:49:02;;;;;;;8.45;4.05;;;;;;;;;;5030542;28;20117;-64
2022/08/08 06:51:27;;;;;;;7.95;3.80;;;;;;;;;;5031102;28;20108;-64
2022/08/08 06:53:53;;;;;;;11.52;3.97;;;;;;;;;;5030901;28;20173;-64
2022/08/08 06:56:18;;;;;;;6.13;3.60;;;;;;;;;;5030835;28;20061;-64
2022/08/08 06:58:43;;;;;;;6.50;3.45;;;;;;;;;;5031080;28;20028;-65
2022/08/08 07:01:09;;;;;;;7.57;3.80;;;;;;;;;;5030925;28;20440;-65
2022/08/08 07:03:48;;;;;;;7.75;4.05;;;;;;;;;;5028433;28;20038;-64
2022/08/08 07:06:15;;;;;;;8.40;3.90;;;;;;;;;;5030923;28;20032;-65
2022/08/08 07:08:42;;;;;;;7.13;3.63;;;;;;;;;;5030692;28;20021;-65
2022/08/08 07:11:08;;;;;;;9.35;4.05;;;;;;;;;;5030869;28;20083;-65
2022/08/08 07:13:38;;;;;;;7.80;3.80;;;;;;;;;;5030801;28;20021;-65
2022/08/08 07:16:08;;;;;;;8.87;3.50;;;;;;;;;;5030993;28;20026;-64
2022/08/08 07:18:39;;;;;;;8.13;3.22;;;;;;;;;;5030850;28;20292;-65
2022/08/08 07:21:06;;;;;;;5.53;3.20;;;;;;;;;;5031139;28;20534;-65
2022/08/08 07:23:43;;;;;;;6.50;2.90;;;;;;;;;;5030723;28;20381;-64
2022/08/08 07:26:09;;;;;;;5.18;2.72;;;;;;;;;;5010962;28;20471;-64
2022/08/08 07:28:35;;;;;;;8.35;2.72;;;;;;;;;;5011052;28;20022;-65
2022/08/08 07:31:02;;;;;;;7.25;2.67;;;;;;;;;;5030685;28;20041;-64
2022/08/08 07:33:27;;;;;;;6.95;2.50;;;;;;;;;;5030558;28;20018;-65
2022/08/08 07:35:54;;;;;;;5.75;2.25;;;;;;;;;;5030479;28;20028;-64
2022/08/08 07:38:19;;;;;;;7.05;2.50;;;;;;;;;;5029313;28;20029;-64
2022/08/08 07:40:45;;;;;;;9.82;2.72;;;;;;;;;;5030101;28;20032;-65
2022/08/08 07:43:11;;;;;;;5.07;2.08;;;;;;;;;;5030407;28;20029;-65
2022/08/08 07:45:37;;;;;;;5.18;2.20;;;;;;;;;;5030275;28;20025;-65
2022/08/08 07:48:02;;;;;;;6.65;2.28;;;;;;;;;;5031043;28;20036;-65
2022/08/08 07:50:28;;;;;;;5.25;1.85;;;;;;;;;;5026761;28;20417;-65
2022/08/08 07:52:58;;;;;;;4.65;2.00;;;;;;;;;;5030478;28;20441;-65
2022/08/08 07:55:27;;;;;;;5.38;1.90;;;;;;;;;;5030634;28;20108;-65
2022/08/08 07:57:52;;;;;;;4.82;1.80;;;;;;;;;;5030846;28;20029;-65
2022/08/08 08:00:18;;;;;;;5.17;1.90;;;;;;;;;;5030580;28;20030;-65
2022/08/08 08:02:45;;;;;;;6.07;1.90;;;;;;;;;;5031046;28;20276;-65
2022/08/08 08:05:23;;;;;;;6.53;1.98;;;;;;;;;;5030759;28;20025;-65
2022/08/08 08:07:52;;;;;;;9.20;1.55;;;;;;;;;;5034377;28;20465;-65
2022/08/08 08:10:18;;;;;;;6.13;1.95;;;;;;;;;;5036276;28;20519;-64
2022/08/08 08:12:52;;;;;;;6.63;1.90;;;;;;;;;;5032953;28;20053;-64
2022/08/08 08:15:18;;;;;;;5.07;1.52;;;;;;;;;;5033772;28;20371;-64
2022/08/08 08:17:44;;;;;;;4.93;1.38;;;;;;;;;;5033873;28;20030;-65
2022/08/08 08:20:11;;;;;;;5.55;1.48;;;;;;;;;;5031557;28;20086;-65
2022/08/08 08:22:36;;;;;;;5.28;2.05;;;;;;;;;;5033672;28;20025;-65
2022/08/08 08:25:02;;;;;;;6.20;1.85;;;;;;;;;;5033806;28;20033;-64
2022/08/08 08:27:27;;;;;;;4.00;1.55;;;;;;;;;;5033835;28;20021;-65
2022/08/08 08:29:52;;;;;;;5.40;1.50;;;;;;;;;;5031602;28;20022;-64
2022/08/08 08:32:18;;;;;;;3.80;1.40;;;;;;;;;;5033197;28;20268;-65
2022/08/08 08:34:43;;;;;;;7.18;1.63;;;;;;;;;;5033101;28;20036;-65
2022/08/08 08:37:08;;;;;;;4.18;1.30;;;;;;;;;;5033844;28;20088;-65
2022/08/08 08:39:36;;;;;;;5.10;1.40;;;;;;;;;;5033436;28;20048;-65
2022/08/08 08:42:02;;;;;;;3.75;1.40;;;;;;;;;;5033341;28;20018;-65
2022/08/08 08:44:27;;;;;;;4.95;1.48;;;;;;;;;;5032986;28;20028;-65
2022/08/08 08:46:53;;;;;;;7.05;1.42;;;;;;;;;;5033453;28;20030;-65
2022/08/08 08:49:18;;;;;;;5.18;1.52;;;;;;;;;;5031939;28;20032;-65
2022/08/08 08:51:43;;;;;;;5.70;1.30;;;;;;;;;;5028580;28;20025;-65
2022/08/08 08:54:10;;;;;;;3.60;1.20;;;;;;;;;;5033206;28;20311;-65
2022/08/08 08:56:36;;;;;;;4.75;1.55;;;;;;;;;;5033517;28;20057;-65
2022/08/08 08:59:03;;;;;;;4.40;1.42;;;;;;;;;;5028727;28;20083;-64
2022/08/08 09:01:31;;;;;;;4.40;1.52;;;;;;;;;;5032677;28;20045;-65
2022/08/08 09:03:59;;;;;;;4.90;1.50;;;;;;;;;;5032465;28;20043;-65
2022/08/08 09:06:25;;;;;;;5.15;1.50;;;;;;;;;;5032572;28;20017;-65
2022/08/08 09:08:52;;;;;;;6.72;1.50;;;;;;;;;;5032076;28;20349;-65
2022/08/08 09:11:18;;;;;;;6.63;1.50;;;;;;;;;;5034382;28;20021;-65
2022/08/08 09:13:43;;;;;;;3.22;1.20;;;;;;;;;;5034048;28;20044;-65
2022/08/08 09:16:09;;;;;;;5.00;1.60;;;;;;;;;;5032482;28;20025;-65
2022/08/08 09:18:34;;;;;;;3.97;1.60;;;;;;;;;;5030555;28;20017;-65
2022/08/08 09:21:00;;;;;;;6.05;1.70;;;;;;;;;;5032729;28;20025;-65
2022/08/08 09:23:28;;;;;;;4.72;1.27;;;;;;;;;;5032667;28;20493;-65
2022/08/08 09:26:20;;;;;;;6.25;1.45;;;;;;;;;;5032583;28;20021;-65
2022/08/08 09:28:45;;;;;;;6.32;1.85;;;;;;;;;;5030903;28;20029;-65
2022/08/08 09:31:27;;;;;;;4.63;1.55;;;;;;;;;;5032447;28;20104;-64
2022/08/08 09:33:53;;;;;;;4.97;1.70;;;;;;;;;;5031461;28;20116;-65
2022/08/08 09:36:21;;;;;;;4.18;1.67;;;;;;;;;;5032601;28;20033;-65
2022/08/08 09:38:51;;;;;;;2.85;1.33;;;;;;;;;;5033927;28;20037;-65
2022/08/08 09:41:16;;;;;;;6.45;1.90;;;;;;;;;;5032098;28;20112;-66
2022/08/08 09:43:48;;;;;;;4.57;1.70;;;;;;;;;;5031427;28;20112;-66
2022/08/08 09:46:15;;;;;;;5.65;1.60;;;;;;;;;;5032367;28;20159;-65
2022/08/08 09:48:44;;;;;;;4.25;1.67;;;;;;;;;;5031400;28;20025;-66
2022/08/08 09:51:09;;;;;;;5.22;1.70;;;;;;;;;;5032093;28;20096;-65
2022/08/08 09:53:46;;;;;;;5.07;1.63;;;;;;;;;;5031916;28;20029;-66
2022/08/08 09:56:13;;;;;;;3.97;1.83;;;;;;;;;;5031811;28;20318;-65
2022/08/08 09:58:39;;;;;;;4.60;1.80;;;;;;;;;;5031815;28;20029;-66
2022/08/08 10:01:08;;;;;;;3.67;1.40;;;;;;;;;;5031954;28;20126;-66
2022/08/08 10:03:34;;;;;;;5.38;2.00;;;;;;;;;;5031778;28;20052;-66
2022/08/08 10:06:00;;;;;;;4.95;1.85;;;;;;;;;;5019732;28;20062;-65
2022/08/08 10:08:30;;;;;;;5.07;2.00;;;;;;;;;;5029383;28;20013;-67
2022/08/08 10:10:57;;;;;;;7.50;2.20;;;;;;;;;;5032841;28;20026;-65
2022/08/08 10:13:23;;;;;;;6.25;2.00;;;;;;;;;;5031262;28;20421;-66
2022/08/08 10:15:51;;;;;;;6.55;1.98;;;;;;;;;;5029150;28;20026;-65
2022/08/08 10:18:46;;;;;;;6.07;1.90;;;;;;;;;;5032011;28;20076;-65
2022/08/08 10:21:12;;;;;;;5.63;1.80;;;;;;;;;;5007241;28;20041;-65
2022/08/08 10:23:41;;;;;;;5.70;2.00;;;;;;;;;;5021848;28;20393;-65
2022/08/08 10:26:09;;;;;;;5.78;2.08;;;;;;;;;;5030958;28;20022;-65
2022/08/08 10:28:36;;;;;;;6.70;2.00;;;;;;;;;;5031363;28;20022;-65
2022/08/08 10:33:45;;;;;;;5.00;1.40;;;;;;;;;;5031238;28;20033;-65
2022/08/08 10:36:12;;;;;;;4.75;1.73;;;;;;;;;;5030614;28;20025;-66
2022/08/08 10:38:37;;;;;;;5.25;1.90;;;;;;;;;;5029633;28;20029;-66
2022/08/08 10:41:04;;;;;;;4.28;1.65;;;;;;;;;;5030770;28;20492;-66
2022/08/08 10:43:38;;;;;;;5.10;1.80;;;;;;;;;;5032504;28;20018;-66
2022/08/08 10:46:03;;;;;;;6.40;2.13;;;;;;;;;;5031271;28;20021;-66
2022/08/08 10:48:32;;;;;;;5.50;1.85;;;;;;;;;;5030354;28;20366;-66
2022/08/08 10:50:57;;;;;;;5.68;2.30;;;;;;;;;;5030710;28;20100;-65
2022/08/08 10:53:33;;;;;;;7.28;1.92;;;;;;;;;;5031207;28;20485;-65
2022/08/08 10:55:58;;;;;;;4.85;1.70;;;;;;;;;;5030731;28;20453;-65
2022/08/08 10:58:26;;;;;;;7.75;1.80;;;;;;;;;;5032603;28;20026;-66
2022/08/08 11:00:51;;;;;;;4.05;1.73;;;;;;;;;;5030234;28;20100;-66
2022/08/08 11:03:17;;;;;;;5.53;1.80;;;;;;;;;;5030949;28;20112;-65
2022/08/08 11:05:49;;;;;;;7.40;1.88;;;;;;;;;;5030829;28;20045;-66
2022/08/08 11:08:21;;;;;;;4.13;1.80;;;;;;;;;;5032666;28;20025;-65
2022/08/08 11:10:46;;;;;;;7.55;2.30;;;;;;;;;;5030807;28;20075;-65
2022/08/08 11:13:18;;;;;;;4.50;1.90;;;;;;;;;;5031880;28;20029;-65
2022/08/08 11:15:43;;;;;;;4.40;1.60;;;;;;;;;;5028785;28;20068;-66
2022/08/08 11:18:08;;;;;;;3.33;1.48;;;;;;;;;;5032079;28;20060;-65
2022/08/08 11:20:34;;;;;;;7.38;1.63;;;;;;;;;;5029284;28;20025;-65
2022/08/08 11:23:00;;;;;;;5.03;1.80;;;;;;;;;;5030716;28;20021;-65
2022/08/08 11:25:28;;;;;;;5.28;1.70;;;;;;;;;;5030515;28;20049;-65
2022/08/08 11:27:54;;;;;;;8.27;2.08;;;;;;;;;;5031077;28;20025;-65
2022/08/08 11:30:20;;;;;;;3.95;1.60;;;;;;;;;;5030558;28;20105;-65
2022/08/08 11:32:46;;;;;;;7.55;2.13;;;;;;;;;;5030639;28;20026;-65
2022/08/08 11:35:12;;;;;;;5.43;1.90;;;;;;;;;;5030618;28;20102;-65
2022/08/08 11:37:38;;;;;;;4.55;1.85;;;;;;;;;;5030086;28;20029;-65
2022/08/08 11:40:05;;;;;;;5.53;2.00;;;;;;;;;;5031558;28;20026;-65
2022/08/08 11:42:31;;;;;;;5.95;2.30;;;;;;;;;;5034931;28;20090;-65
2022/08/08 11:44:57;;;;;;;4.10;1.70;;;;;;;;;;5034451;28;20102;-65
2022/08/08 11:47:22;;;;;;;5.50;1.90;;;;;;;;;;5033252;28;20381;-65
2022/08/08 11:49:50;;;;;;;5.38;1.95;;;;;;;;;;5033751;28;20488;-66
2022/08/08 11:52:16;;;;;;;6.63;1.92;;;;;;;;;;5030092;28;20060;-65
2022/08/08 11:54:43;;;;;;;9.15;2.08;;;;;;;;;;5036283;28;20092;-65
2022/08/08 11:57:09;;;;;;;4.43;1.77;;;;;;;;;;5035373;28;20017;-66
2022/08/08 11:59:35;;;;;;;3.92;1.60;;;;;;;;;;5035239;28;20385;-66
2022/08/08 12:02:04;;;;;;;3.88;1.55;;;;;;;;;;5034258;28;20028;-65
2022/08/08 12:04:30;;;;;;;6.63;2.20;;;;;;;;;;5033005;28;20029;-65
2022/08/08 12:07:05;;;;;;;4.32;1.75;;;;;;;;;;5033971;28;20116;-65
2022/08/08 12:09:30;;;;;;;3.80;1.70;;;;;;;;;;5034058;28;20474;-65
2022/08/08 12:11:56;;;;;;;5.30;1.60;;;;;;;;;;5033706;28;20024;-65
2022/08/08 12:14:21;;;;;;;3.90;1.60;;;;;;;;;;5035366;28;20033;-65
2022/08/08 12:16:47;;;;;;;3.78;1.60;;;;;;;;;;5033788;28;20524;-66
2022/08/08 12:19:12;;;;;;;5.63;1.77;;;;;;;;;;5032634;28;20037;-65
2022/08/08 12:21:39;;;;;;;4.07;1.48;;;;;;;;;;5033959;28;20017;-65
2022/08/08 12:24:08;;;;;;;4.53;1.20;;;;;;;;;;5032723;28;20083;-66
2022/08/08 12:26:40;;;;;;;4.25;1.40;;;;;;;;;;5033507;28;20017;-65
2022/08/08 12:29:23;;;;;;;3.70;1.40;;;;;;;;;;5035113;28;20063;-66
2022/08/08 12:32:01;;;;;;;2.72;1.20;;;;;;;;;;5033777;28;20083;-65
2022/08/08 12:34:32;;;;;;;5.13;1.30;;;;;;;;;;5036438;28;20421;-65
2022/08/08 12:36:57;;;;;;;;;;;;;;;;;;5033794;28;20063;-65
2022/08/08 12:39:26;;;;;;;5.13;1.42;;;;;;;;;;5033099;28;19913;-65
2022/08/08 12:41:56;;;;;;;2.65;1.17;;;;;;;;;;5032589;28;20513;-66
2022/08/08 12:44:25;;;;;;;4.28;1.20;;;;;;;;;;5034257;28;20029;-66
2022/08/08 12:46:55;;;;;;;5.53;1.15;;;;;;;;;;5030456;28;20485;-66
2022/08/08 12:49:25;;;;;;;3.38;1.10;;;;;;;;;;5029187;28;20029;-66
2022/08/08 12:51:50;;;;;;;6.25;1.30;;;;;;;;;;5032191;28;20109;-66
2022/08/08 12:54:22;;;;;;;6.82;1.48;;;;;;;;;;5033453;28;20127;-66
2022/08/08 12:56:48;;;;;;;3.95;1.30;;;;;;;;;;5033140;28;20048;-65
2022/08/08 12:59:18;;;;;;;4.05;1.30;;;;;;;;;;5032119;28;20016;-66
2022/08/08 13:01:53;;;;;;;4.45;1.58;;;;;;;;;;5032840;28;20025;-66
2022/08/08 13:04:20;;;;;;;4.07;1.30;;;;;;;;;;5033850;28;20088;-65
2022/08/08 13:06:59;;;;;;;6.60;1.60;;;;;;;;;;5033472;28;20097;-65
2022/08/08 13:09:37;;;;;;;4.55;1.17;;;;;;;;;;5034641;28;20566;-65
2022/08/08 13:12:11;;;;;;;5.60;1.10;;;;;;;;;;5032948;28;20021;-66
2022/08/08 13:14:37;;;;;;;4.75;1.45;;;;;;;;;;5033987;28;20030;-66
2022/08/08 13:17:04;;;;;;;2.90;1.00;;;;;;;;;;5032802;28;20056;-65
2022/08/08 13:19:29;;;;;;;3.55;1.00;;;;;;;;;;5032713;28;20017;-65
2022/08/08 13:21:55;;;;;;;3.40;0.90;;;;;;;;;;5032793;28;20853;-66
2022/08/08 13:24:20;;;;;;;4.28;0.98;;;;;;;;;;5031775;28;20022;-65
2022/08/08 13:26:46;;;;;;;4.65;1.30;;;;;;;;;;5031736;28;20414;-65
2022/08/08 13:29:12;;;;;;;2.63;0.83;;;;;;;;;;5032525;28;20067;-65
2022/08/08 13:31:47;;;;;;;4.70;0.90;;;;;;;;;;5032583;28;20260;-66
2022/08/08 13:34:19;;;;;;;4.25;0.90;;;;;;;;;;5030002;28;21902;-66
2022/08/08 13:36:44;;;;;;;4.22;1.00;;;;;;;;;;5031666;28;20021;-65
2022/08/08 13:39:12;;;;;;;5.32;1.38;;;;;;;;;;5031969;28;20030;-66
2022/08/08 13:41:37;;;;;;;5.35;1.10;;;;;;;;;;5034851;28;20030;-66
2022/08/08 13:44:05;;;;;;;5.57;1.40;;;;;;;;;;5031332;28;20375;-65
2022/08/08 13:46:30;;;;;;;4.82;1.25;;;;;;;;;;5035703;28;20018;-66
2022/08/08 13:48:56;;;;;;;3.67;0.98;;;;;;;;;;5031505;28;20051;-65
2022/08/08 13:51:21;;;;;;;2.90;0.98;;;;;;;;;;5030707;28;20025;-66
2022/08/08 13:53:51;;;;;;;2.25;0.80;;;;;;;;;;5031753;28;20501;-66
2022/08/08 13:56:26;;;;;;;3.00;0.80;;;;;;;;;;5032085;28;20543;-66
2022/08/08 13:58:51;;;;;;;3.75;1.17;;;;;;;;;;5032811;28;20048;-66
2022/08/08 14:01:17;;;;;;;5.25;1.27;;;;;;;;;;5032592;28;20032;-66
2022/08/08 14:03:53;;;;;;;4.25;1.00;;;;;;;;;;5030761;28;20028;-66
2022/08/08 14:06:19;;;;;;;6.18;1.00;;;;;;;;;;5031985;28;20092;-66
2022/08/08 14:08:44;;;;;;;6.25;1.15;;;;;;;;;;5030646;28;20101;-65
2022/08/08 14:11:14;;;;;;;4.03;1.10;;;;;;;;;;5033925;28;20097;-65
2022/08/08 14:13:40;;;;;;;4.95;1.20;;;;;;;;;;5029186;28;20033;-65
2022/08/08 14:16:05;;;;;;;3.75;1.10;;;;;;;;;;5035641;28;20087;-66
2022/08/08 14:18:30;;;;;;;4.95;1.40;;;;;;;;;;5028766;28;20023;-65
2022/08/08 14:20:59;;;;;;;3.45;1.30;;;;;;;;;;5031274;28;20072;-66
2022/08/08 14:23:24;;;;;;;7.57;1.40;;;;;;;;;;5030878;28;20473;-66
2022/08/08 14:25:54;;;;;;;3.65;1.42;;;;;;;;;;5031329;28;20064;-66
2022/08/08 14:28:20;;;;;;;5.00;1.02;;;;;;;;;;5031918;28;20029;-66
2022/08/08 14:30:46;;;;;;;4.82;0.90;;;;;;;;;;5033566;28;20537;-65
2022/08/08 14:33:11;;;;;;;6.22;1.15;;;;;;;;;;5032171;28;20036;-65
2022/08/08 14:35:37;;;;;;;8.48;1.20;;;;;;;;;;5033865;28;20025;-65
2022/08/08 14:38:08;;;;;;;5.22;1.08;;;;;;;;;;5030602;28;20034;-66
2022/08/08 14:40:38;;;;;;;3.38;0.95;;;;;;;;;;5036322;28;20043;-66
2022/08/08 14:43:04;;;;;;;3.20;0.90;;;;;;;;;;5037103;28;20064;-65
2022/08/08 14:45:29;;;;;;;6.93;1.05;;;;;;;;;;5032408;28;20037;-65
2022/08/08 14:47:59;;;;;;;3.80;0.93;;;;;;;;;;5031049;28;20029;-65
2022/08/08 14:50:26;;;;;;;3.40;0.98;;;;;;;;;;5027195;28;20447;-66
2022/08/08 14:52:51;;;;;;;5.43;1.58;;;;;;;;;;5038097;28;20124;-66
2022/08/08 14:55:16;;;;;;;4.55;1.17;;;;;;;;;;5035603;28;20108;-66